Time;durP1;ratioP1;P1;durP2;ratioP2;P2;SDS_P1;SDS_P2;PMS_P1;PMS_P2;Temp;Humidity;BMP_temperature;BMP_pressure;BME280_temperature;BME280_humidity;BME280_pressure;Samples;Min_cycle;Max_cycle;Signal;HPM_P1;HPM_P2
2021/11/12 00:12:44;;;;;;;40.80;24.65;;;;;;;3.88;100.00;102066.84;2091177;28;20024;-71
2021/11/12 00:13:45;;;;;;;51.55;25.08;;;;;;;3.88;100.00;102066.84;2090954;28;20013;-70
2021/11/12 00:14:47;;;;;;;41.00;25.97;;;;;;;3.88;100.00;102062.56;2090979;28;20068;-71
2021/11/12 00:15:54;;;;;;;44.53;24.77;;;;;;;3.90;100.00;102066.00;2090932;28;20033;-71
2021/11/12 00:16:55;;;;;;;46.72;25.88;;;;;;;3.89;100.00;102059.13;2090941;28;20029;-71
2021/11/12 00:17:56;;;;;;;44.28;26.38;;;;;;;3.89;100.00;102059.13;2090937;28;20036;-70
2021/11/12 00:18:56;;;;;;;39.30;24.83;;;;;;;3.89;100.00;102058.25;2090986;28;20044;-70
2021/11/12 00:19:58;;;;;;;39.23;24.60;;;;;;;3.90;100.00;102062.56;2090866;28;20032;-70
2021/11/12 00:21:00;;;;;;;41.10;24.92;;;;;;;3.92;100.00;102064.31;2090241;28;20036;-70
2021/11/12 00:22:01;;;;;;;45.90;26.42;;;;;;;3.91;100.00;102053.97;2090309;28;20033;-70
2021/11/12 00:23:01;;;;;;;44.87;26.90;;;;;;;3.92;100.00;102056.56;2090957;28;20428;-70
2021/11/12 00:24:01;;;;;;;37.67;23.90;;;;;;;3.93;100.00;102057.44;2090942;28;20493;-70
2021/11/12 00:25:03;;;;;;;43.50;27.50;;;;;;;3.91;100.00;102052.25;2090874;28;20029;-70
2021/11/12 00:26:04;;;;;;;;;;;;;;;3.91;100.00;102051.38;2091290;28;20032;-70
2021/11/12 00:27:06;;;;;;;41.60;21.35;;;;;;;3.90;100.00;102041.91;2090938;28;19915;-70
2021/11/12 00:28:06;;;;;;;38.95;21.88;;;;;;;3.90;100.00;102044.50;2090822;28;20036;-71
2021/11/12 00:29:09;;;;;;;43.17;25.13;;;;;;;3.89;100.00;102045.31;2090873;28;20410;-70
2021/11/12 00:30:24;;;;;;;50.10;25.58;;;;;;;3.86;100.00;102041.88;2090802;28;20032;-70
2021/11/12 00:34:03;;;;;;;43.47;25.02;;;;;;;3.85;100.00;102032.41;2090993;28;20534;-70
2021/11/12 00:35:17;;;;;;;42.10;25.25;;;;;;;3.83;100.00;102034.13;2090192;28;20497;-70
2021/11/12 00:36:34;;;;;;;43.63;25.02;;;;;;;3.82;100.00;102026.38;2090378;28;20028;-70
2021/11/12 00:38:58;;;;;;;46.13;24.98;;;;;;;3.78;100.00;102033.25;2090907;28;20507;-70
2021/11/12 00:40:06;;;;;;;46.42;26.13;;;;;;;3.77;100.00;102036.69;2090032;28;20079;-70
2021/11/12 00:43:15;;;;;;;39.65;23.85;;;;;;;3.76;100.00;102026.34;2090817;28;20045;-70
2021/11/12 00:43:54;;;;;;;39.13;24.40;;;;;;;3.78;100.00;102030.66;2086690;28;20028;-71
2021/11/12 00:45:03;;;;;;;41.72;24.60;;;;;;;3.76;100.00;102027.19;2089931;28;20031;-69
2021/11/12 00:46:33;;;;;;;41.40;23.45;;;;;;;3.75;100.00;102028.06;2090205;28;20082;-71
2021/11/12 00:48:10;;;;;;;40.83;24.63;;;;;;;3.72;100.00;102025.44;2090459;28;20082;-70
2021/11/12 00:48:56;;;;;;;44.53;26.00;;;;;;;3.68;100.00;102019.41;2089342;28;20482;-69
2021/11/12 00:51:14;;;;;;;44.33;25.45;;;;;;;3.65;100.00;102019.41;2090814;28;20509;-71
2021/11/12 00:52:28;;;;;;;41.58;25.75;;;;;;;3.68;100.00;102021.13;2090682;28;20444;-70
2021/11/12 00:54:28;;;;;;;44.13;27.50;;;;;;;3.60;100.00;102014.19;2090648;28;20025;-70
2021/11/12 00:55:34;;;;;;;43.60;25.63;;;;;;;3.57;100.00;102021.94;2089980;28;20486;-70
2021/11/12 00:56:35;;;;;;;35.85;24.48;;;;;;;3.51;100.00;102019.31;2090097;28;20535;-70
2021/11/12 00:57:36;;;;;;;42.78;26.25;;;;;;;3.45;100.00;102012.41;2090657;28;20051;-70
2021/11/12 00:58:37;;;;;;;45.05;26.42;;;;;;;3.43;100.00;102013.25;2090628;28;20356;-70
2021/11/12 00:59:37;;;;;;;42.20;25.42;;;;;;;3.38;100.00;102010.63;2090628;28;20032;-70
2021/11/12 01:00:37;;;;;;;45.67;25.67;;;;;;;3.34;100.00;102006.31;2090616;28;20031;-70
2021/11/12 01:01:39;;;;;;;44.77;25.33;;;;;;;3.30;100.00;102007.13;2089982;28;20446;-70
2021/11/12 01:02:40;;;;;;;45.35;24.60;;;;;;;3.29;100.00;102008.84;2089982;28;20471;-70
2021/11/12 01:03:40;;;;;;;48.72;27.10;;;;;;;3.31;100.00;102002.00;2089832;28;20035;-70
2021/11/12 01:04:40;;;;;;;43.60;25.50;;;;;;;3.34;100.00;102012.34;2089969;28;20025;-70
2021/11/12 01:05:42;;;;;;;48.57;27.63;;;;;;;3.33;100.00;102008.03;2090552;28;20024;-70
2021/11/12 01:06:44;;;;;;;;;;;;;;;3.31;100.00;102008.84;2091006;28;20021;-70
2021/11/12 01:07:45;;;;;;;;;;;;;;;3.27;100.00;102005.41;2090343;28;19976;-70
2021/11/12 01:08:45;;;;;;;42.33;21.05;;;;;;;3.26;100.00;102008.84;2089865;28;19909;-70
2021/11/12 01:09:46;;;;;;;45.88;24.98;;;;;;;3.24;100.00;102007.94;2090004;28;20052;-70
2021/11/12 01:10:47;;;;;;;41.30;23.77;;;;;;;3.21;100.00;102008.81;2089826;28;20524;-71
2021/11/12 01:11:49;;;;;;;44.47;25.20;;;;;;;3.22;100.00;102007.09;2090009;28;20029;-71
2021/11/12 01:12:50;;;;;;;44.50;24.50;;;;;;;3.20;100.00;102007.09;2090510;28;20497;-70
2021/11/12 01:13:51;;;;;;;43.50;24.95;;;;;;;3.20;100.00;102001.06;2090490;28;20033;-70
2021/11/12 01:14:55;;;;;;;48.25;25.00;;;;;;;3.13;100.00;101996.69;2089822;28;20039;-70
2021/11/12 01:15:56;;;;;;;49.13;26.60;;;;;;;3.05;100.00;101996.66;2089961;28;20071;-70
2021/11/12 01:16:56;;;;;;;45.28;26.35;;;;;;;3.01;100.00;101992.31;2089858;28;20079;-70
2021/11/12 01:17:56;;;;;;;46.28;26.75;;;;;;;2.97;100.00;101994.00;2089878;28;20375;-70
2021/11/12 01:18:57;;;;;;;49.13;25.47;;;;;;;2.96;100.00;101993.16;2090477;28;20036;-71
2021/11/12 01:19:58;;;;;;;49.75;26.33;;;;;;;2.94;100.00;101993.97;2090477;28;20032;-70
2021/11/12 01:20:58;;;;;;;43.50;24.80;;;;;;;2.95;100.00;101993.97;2090442;28;20158;-71
2021/11/12 01:21:58;;;;;;;47.47;26.73;;;;;;;2.93;100.00;101994.81;2090519;28;20087;-70
2021/11/12 01:22:59;;;;;;;45.00;25.93;;;;;;;2.93;100.00;101994.81;2090528;28;20112;-70
2021/11/12 01:23:59;;;;;;;48.57;29.37;;;;;;;2.94;100.00;102001.69;2089733;28;20028;-70
2021/11/12 01:25:04;;;;;;;42.25;24.80;;;;;;;2.91;100.00;101994.81;2089768;28;20025;-70
2021/11/12 01:26:05;;;;;;;45.05;24.42;;;;;;;2.88;100.00;101994.81;2089829;28;20059;-70
2021/11/12 01:27:06;;;;;;;50.75;26.83;;;;;;;2.85;100.00;101996.47;2090461;28;20025;-70
2021/11/12 01:28:07;;;;;;;46.70;24.95;;;;;;;2.81;100.00;101988.72;2090403;28;20029;-70
2021/11/12 01:29:07;;;;;;;;;;;;;;;2.81;100.00;101993.88;2090844;28;20037;-70
2021/11/12 01:30:11;;;;;;;43.55;23.60;;;;;;;2.79;100.00;101993.00;2090430;28;19952;-70
2021/11/12 01:31:12;;;;;;;47.20;23.45;;;;;;;2.77;100.00;101992.13;2090388;28;20393;-70
2021/11/12 01:32:22;;;;;;;42.45;24.25;;;;;;;2.72;100.00;101988.63;2090387;28;20032;-69
2021/11/12 01:33:22;;;;;;;47.28;26.88;;;;;;;2.69;100.00;101986.03;2090226;28;20112;-70
2021/11/12 01:34:23;;;;;;;45.30;25.90;;;;;;;2.69;100.00;101988.59;2089753;28;20514;-70
2021/11/12 01:35:24;;;;;;;50.80;26.87;;;;;;;2.72;100.00;101980.03;2089795;28;20017;-70
2021/11/12 01:36:33;;;;;;;43.85;24.73;;;;;;;2.75;100.00;101982.66;2089756;28;20107;-69
2021/11/12 01:37:34;;;;;;;49.20;26.30;;;;;;;2.71;100.00;101986.91;2089814;28;20029;-70
2021/11/12 01:38:35;;;;;;;;;;;;;;;2.70;100.00;101980.00;2090727;28;20474;-69
2021/11/12 01:39:35;;;;;;;41.75;22.88;;;;;;;2.69;100.00;101988.59;2090338;28;20003;-69
2021/11/12 01:40:36;;;;;;;49.53;25.80;;;;;;;2.71;100.00;101986.91;2089742;28;20544;-70
2021/11/12 01:41:41;;;;;;;48.60;23.60;;;;;;;2.73;100.00;101979.22;2089736;28;20023;-69
2021/11/12 01:43:13;;;;;;;49.58;26.02;;;;;;;2.69;100.00;101986.03;2090304;28;20064;-70
2021/11/12 01:44:14;;;;;;;50.10;24.13;;;;;;;2.63;100.00;101978.25;2089653;28;20021;-70
2021/11/12 01:45:15;;;;;;;;;;;;;;;2.62;100.00;101981.66;2089993;28;20033;-71
2021/11/12 01:47:21;;;;;;;47.97;25.53;;;;;;;2.57;100.00;101984.22;2090409;28;20438;-71
2021/11/12 01:49:46;;;;;;;47.17;24.13;;;;;;;2.49;100.00;101983.28;2090344;28;20149;-71
2021/11/12 01:50:55;;;;;;;52.50;25.67;;;;;;;2.49;100.00;101981.56;2090278;28;20470;-71
2021/11/12 01:55:06;;;;;;;46.50;22.60;;;;;;;2.39;100.00;101972.88;2089337;28;20036;-71
2021/11/12 01:56:24;;;;;;;49.78;25.13;;;;;;;2.39;100.00;101969.44;2089513;28;20490;-71
2021/11/12 01:57:34;;;;;;;47.03;23.33;;;;;;;2.37;100.00;101969.44;2089766;28;20110;-70
2021/11/12 01:59:05;;;;;;;45.13;25.02;;;;;;;2.34;100.00;101965.94;2090238;28;20382;-71
2021/11/12 02:00:11;;;;;;;49.45;23.83;;;;;;;2.28;100.00;101962.47;2090187;28;20120;-70
2021/11/12 02:01:11;;;;;;;45.50;24.15;;;;;;;2.24;100.00;101955.56;2090054;28;20021;-70
2021/11/12 02:02:11;;;;;;;51.57;24.90;;;;;;;2.23;100.00;101953.84;2090131;28;20040;-70
2021/11/12 02:03:12;;;;;;;53.07;25.43;;;;;;;2.23;100.00;101958.97;2090091;28;20068;-70
2021/11/12 02:04:19;;;;;;;51.83;25.97;;;;;;;2.23;100.00;101958.09;2090016;28;20136;-70
2021/11/12 02:05:20;;;;;;;52.38;25.60;;;;;;;2.24;100.00;101959.81;2089385;28;20291;-71
2021/11/12 02:06:21;;;;;;;58.28;28.50;;;;;;;2.22;100.00;101953.81;2089544;28;20486;-70
2021/11/12 02:07:22;;;;;;;51.53;26.38;;;;;;;2.17;100.00;101946.03;2089481;28;20060;-70
2021/11/12 02:08:22;;;;;;;56.55;28.77;;;;;;;2.11;100.00;101949.41;2081320;28;20029;-70
2021/11/12 02:09:23;;;;;;;59.13;28.40;;;;;;;2.09;100.00;101945.94;2081186;28;20428;-70
2021/11/12 02:10:25;;;;;;;51.53;27.17;;;;;;;2.08;100.00;101948.53;2089592;28;20020;-70
2021/11/12 02:11:25;;;;;;;53.67;26.38;;;;;;;2.04;100.00;101945.91;2090126;28;20508;-70
2021/11/12 02:12:32;;;;;;;52.90;27.27;;;;;;;2.03;100.00;101946.75;2090111;28;20048;-70
2021/11/12 02:13:34;;;;;;;50.85;27.95;;;;;;;2.02;100.00;101944.16;2090067;28;20108;-69
2021/11/12 02:14:36;;;;;;;53.67;26.40;;;;;;;2.00;100.00;101944.13;2090057;28;20025;-69
2021/11/12 02:15:39;;;;;;;56.90;28.67;;;;;;;2.01;100.00;101942.41;2090160;28;20013;-70
2021/11/12 02:16:47;;;;;;;57.30;28.50;;;;;;;2.03;100.00;101938.16;2090076;28;20086;-70
2021/11/12 02:17:55;;;;;;;59.15;28.38;;;;;;;2.04;100.00;101943.31;2089394;28;20443;-71
2021/11/12 02:18:56;;;;;;;67.80;28.98;;;;;;;2.14;100.00;101936.56;2089604;28;20025;-70
2021/11/12 02:20:33;;;;;;;54.85;26.55;;;;;;;2.15;100.00;101939.97;2090127;28;20085;-70
2021/11/12 02:22:46;;;;;;;48.72;25.95;;;;;;;2.00;100.00;101926.13;2090110;28;20037;-70
2021/11/12 02:23:54;;;;;;;59.10;26.80;;;;;;;1.98;100.00;101927.78;2090047;28;20104;-69
2021/11/12 02:25:02;;;;;;;60.25;28.35;;;;;;;1.99;100.00;101923.53;2089986;28;20471;-69
2021/11/12 02:26:04;;;;;;;55.80;28.00;;;;;;;1.99;100.00;101924.38;2090041;28;20471;-70
2021/11/12 02:27:06;;;;;;;62.63;30.05;;;;;;;1.98;100.00;101925.22;2090052;28;20029;-70
2021/11/12 02:28:10;;;;;;;62.63;30.08;;;;;;;2.00;100.00;101925.25;2090046;28;20040;-70
2021/11/12 02:29:12;;;;;;;68.30;30.95;;;;;;;1.99;100.00;101926.09;2090068;28;20033;-70
2021/11/12 02:30:20;;;;;;;65.40;31.92;;;;;;;1.99;100.00;101919.22;2090005;28;20115;-70
2021/11/12 02:31:23;;;;;;;62.53;32.10;;;;;;;2.02;100.00;101921.00;2090024;28;20060;-70
2021/11/12 02:32:27;;;;;;;70.20;32.85;;;;;;;2.03;100.00;101921.00;2090074;28;20021;-70
2021/11/12 02:33:27;;;;;;;61.38;29.77;;;;;;;2.01;100.00;101921.81;2089914;28;20082;-70
2021/11/12 02:34:27;;;;;;;72.28;31.27;;;;;;;1.99;100.00;101919.22;2089985;28;20025;-70
2021/11/12 02:35:30;;;;;;;67.43;31.47;;;;;;;2.01;100.00;101922.69;2090020;28;20546;-70
2021/11/12 02:36:31;;;;;;;68.60;31.38;;;;;;;2.01;100.00;101922.69;2089918;28;20029;-70
2021/11/12 02:37:32;;;;;;;67.78;31.00;;;;;;;2.03;100.00;101926.16;2090046;28;20052;-71
2021/11/12 02:38:36;;;;;;;72.90;35.95;;;;;;;2.10;100.00;101933.94;2090016;28;20028;-70
2021/11/12 02:39:37;;;;;;;78.90;34.97;;;;;;;2.14;100.00;101940.84;2090000;28;20033;-70
2021/11/12 02:40:38;;;;;;;72.32;31.13;;;;;;;2.17;100.00;101935.72;2090037;28;20494;-70
2021/11/12 02:41:40;;;;;;;71.93;31.02;;;;;;;2.24;100.00;101940.09;2089986;28;20021;-70
2021/11/12 02:42:40;;;;;;;;;;;;;;;2.25;100.00;101941.81;2090400;28;20024;-70
2021/11/12 02:43:43;;;;;;;82.38;30.80;;;;;;;2.24;100.00;101945.25;2089362;28;19937;-70
2021/11/12 02:44:44;;;;;;;77.88;32.50;;;;;;;2.23;100.00;101950.38;2081344;28;20124;-70
2021/11/12 02:45:45;;;;;;;68.50;31.50;;;;;;;2.20;100.00;101943.50;2089219;28;20029;-71
2021/11/12 02:46:46;;;;;;;80.93;34.38;;;;;;;2.19;100.00;101946.91;2089980;28;20091;-70
2021/11/12 02:47:47;;;;;;;84.10;35.83;;;;;;;2.17;100.00;101943.44;2090004;28;20485;-71
2021/11/12 02:48:48;;;;;;;79.05;32.90;;;;;;;2.17;100.00;101940.88;2089283;28;20045;-71
2021/11/12 02:49:51;;;;;;;;;;;;;;;2.14;100.00;101935.69;2089843;28;20025;-71
2021/11/12 02:50:51;;;;;;;73.55;29.33;;;;;;;2.08;100.00;101933.91;2089289;28;19909;-70
2021/11/12 02:51:51;;;;;;;75.67;33.50;;;;;;;2.08;100.00;101933.06;2089488;28;20025;-71
2021/11/12 02:52:58;;;;;;;84.30;37.50;;;;;;;2.06;100.00;101928.75;2090044;28;20036;-71
2021/11/12 02:54:02;;;;;;;72.25;33.20;;;;;;;2.03;100.00;101926.16;2089946;28;20025;-71
2021/11/12 02:55:03;;;;;;;86.38;37.80;;;;;;;2.01;100.00;101926.97;2089883;28;20032;-71
2021/11/12 02:56:08;;;;;;;88.88;37.95;;;;;;;1.98;100.00;101926.94;2089946;28;20493;-71
2021/11/12 02:57:09;;;;;;;89.00;38.08;;;;;;;1.98;100.00;101926.94;2089945;28;20063;-71
2021/11/12 02:58:09;;;;;;;94.97;39.07;;;;;;;1.95;100.00;101922.59;2089851;28;20033;-71
2021/11/12 02:59:12;;;;;;;83.93;36.83;;;;;;;1.90;100.00;101924.28;2089928;28;20029;-71
2021/11/12 03:00:15;;;;;;;91.68;37.03;;;;;;;1.86;100.00;101935.38;2089194;28;20463;-71
2021/11/12 03:01:15;;;;;;;90.00;38.10;;;;;;;1.86;100.00;101927.66;2089381;28;20417;-70
2021/11/12 03:02:16;;;;;;;95.97;41.50;;;;;;;1.84;100.00;101929.38;2089908;28;20060;-71
2021/11/12 03:03:16;;;;;;;86.57;36.25;;;;;;;1.85;100.00;101920.78;2089998;28;20123;-71
2021/11/12 03:04:19;;;;;;;99.23;40.27;;;;;;;1.85;100.00;101915.66;2090605;28;20056;-71
2021/11/12 03:05:19;;;;;;;95.00;38.58;;;;;;;1.84;100.00;101926.78;2090923;28;20032;-70
2021/11/12 03:06:21;;;;;;;97.47;39.00;;;;;;;1.75;100.00;101918.09;2090966;28;20033;-70
2021/11/12 03:07:21;;;;;;;100.07;40.03;;;;;;;1.73;100.00;101916.34;2090911;28;20462;-71
2021/11/12 03:08:22;;;;;;;86.53;34.57;;;;;;;1.72;100.00;101912.06;2091499;28;20021;-70
2021/11/12 03:09:24;;;;;;;100.30;40.23;;;;;;;1.74;100.00;101918.09;2091541;28;20029;-71
2021/11/12 03:10:25;;;;;;;98.80;39.47;;;;;;;1.76;100.00;101906.97;2090693;28;20021;-71
2021/11/12 03:11:25;;;;;;;111.93;42.33;;;;;;;1.78;100.00;101913.00;2090878;28;20036;-70
2021/11/12 03:12:26;;;;;;;96.70;40.10;;;;;;;1.75;100.00;101906.94;2091487;28;20458;-70
2021/11/12 03:13:27;;;;;;;93.03;40.60;;;;;;;1.68;100.00;101908.59;2090801;28;20370;-71
2021/11/12 03:14:28;;;;;;;102.90;43.73;;;;;;;1.64;100.00;101909.41;2090955;28;20039;-70
2021/11/12 03:15:29;;;;;;;105.13;40.03;;;;;;;1.59;100.00;101918.75;2091473;28;20382;-70
2021/11/12 03:16:30;;;;;;;109.90;42.40;;;;;;;1.58;100.00;101904.19;2091451;28;20059;-70
2021/11/12 03:17:31;;;;;;;100.45;42.72;;;;;;;1.55;100.00;101907.56;2091403;28;20039;-71
2021/11/12 03:18:32;;;;;;;106.93;40.57;;;;;;;1.53;100.00;101907.56;2091460;28;20104;-70
2021/11/12 03:19:34;;;;;;;116.32;42.83;;;;;;;1.53;100.00;101904.97;2091360;28;20367;-70
2021/11/12 03:20:38;;;;;;;95.07;40.53;;;;;;;1.56;100.00;101908.44;2091344;28;20042;-70
2021/11/12 03:21:40;;;;;;;115.32;40.97;;;;;;;1.52;100.00;101908.41;2091402;28;20024;-70
2021/11/12 03:22:50;;;;;;;100.38;41.05;;;;;;;1.51;100.00;101901.50;2091309;28;20021;-71
2021/11/12 03:23:59;;;;;;;105.05;37.50;;;;;;;1.50;100.00;101897.22;2091378;28;20024;-71
2021/11/12 03:25:06;;;;;;;104.47;40.15;;;;;;;1.50;100.00;101892.06;2090564;28;20025;-71
2021/11/12 03:26:18;;;;;;;106.90;41.60;;;;;;;1.53;100.00;101896.38;2083197;28;20032;-71
2021/11/12 04:01:53;;;;;;;89.43;36.65;;;;;;;1.65;100.00;101862.22;2091202;28;20025;-70
2021/11/12 04:22:04;;;;;;;80.67;33.33;;;;;;;1.64;100.00;101842.50;2091047;28;20041;-71
2021/11/12 04:41:45;;;;;;;68.22;31.10;;;;;;;1.67;100.00;101793.63;2090907;28;20401;-70
2021/11/12 04:50:00;;;;;;;81.72;33.97;;;;;;;1.74;100.00;101787.69;2090801;28;20398;-71
2021/11/12 05:12:16;;;;;;;72.25;31.98;;;;;;;1.59;100.00;101759.22;2090607;28;20086;-71
2021/11/12 05:43:35;;;;;;;68.70;31.65;;;;;;;1.16;100.00;101688.47;2090383;28;20537;-70
2021/11/12 05:44:26;;;;;;;72.07;32.30;;;;;;;1.09;100.00;101713.28;2090386;28;20032;-69
2021/11/12 05:45:46;;;;;;;64.85;27.67;;;;;;;1.08;100.00;101710.69;2089569;28;20056;-70
2021/11/12 05:50:33;;;;;;;69.15;31.42;;;;;;;1.07;100.00;101714.09;2090363;28;20037;-71
2021/11/12 05:51:56;;;;;;;66.53;31.55;;;;;;;1.07;100.00;101724.38;2090210;28;20037;-71
2021/11/12 05:55:35;;;;;;;66.53;30.35;;;;;;;1.05;100.00;101720.94;2090343;28;20029;-71
2021/11/12 05:56:36;;;;;;;60.92;30.70;;;;;;;1.03;100.00;101718.38;2089566;28;20024;-70
2021/11/12 05:57:38;;;;;;;61.15;29.67;;;;;;;1.00;100.00;101714.03;2089538;28;20024;-70
2021/11/12 05:58:39;;;;;;;58.05;26.27;;;;;;;1.00;100.00;101716.59;2089640;28;20032;-72
2021/11/12 05:59:40;;;;;;;71.40;31.90;;;;;;;1.00;100.00;101710.59;2090250;28;20444;-71
2021/11/12 06:00:40;;;;;;;68.50;28.05;;;;;;;0.99;100.00;101707.16;2090129;28;20017;-71
2021/11/12 06:01:43;;;;;;;57.43;27.77;;;;;;;0.98;100.00;101702.88;2090151;28;20068;-71
2021/11/12 06:02:43;;;;;;;57.63;25.83;;;;;;;0.98;100.00;101715.72;2090156;28;20028;-70
2021/11/12 06:03:43;;;;;;;63.00;29.10;;;;;;;1.00;100.00;101719.16;2090051;28;20493;-70
2021/11/12 06:04:44;;;;;;;56.40;29.50;;;;;;;1.00;100.00;101726.88;2090179;28;20091;-71
2021/11/12 06:05:44;;;;;;;60.80;30.77;;;;;;;1.00;100.00;101723.47;2090104;28;20025;-71
2021/11/12 06:06:45;;;;;;;61.90;29.17;;;;;;;0.96;100.00;101727.69;2090201;28;20112;-71
2021/11/12 06:07:47;;;;;;;53.40;26.10;;;;;;;0.96;100.00;101727.69;2090183;28;20033;-71
2021/11/12 06:08:48;;;;;;;65.40;27.92;;;;;;;0.94;100.00;101725.94;2089489;28;20052;-71
2021/11/12 06:09:48;;;;;;;51.23;26.60;;;;;;;0.89;100.00;101723.34;2089838;28;20062;-71
2021/11/12 06:10:48;;;;;;;56.70;29.37;;;;;;;0.86;100.00;101716.44;2089507;28;20021;-71
2021/11/12 06:11:53;;;;;;;54.53;26.70;;;;;;;0.85;100.00;101724.13;2089600;28;20025;-71
2021/11/12 06:12:54;;;;;;;53.45;26.55;;;;;;;0.82;100.00;101708.69;2090093;28;20097;-71
2021/11/12 06:13:58;;;;;;;54.50;25.77;;;;;;;0.80;100.00;101707.78;2089434;28;20041;-70
2021/11/12 06:14:58;;;;;;;53.25;27.85;;;;;;;0.79;100.00;101709.53;2089604;28;20040;-71
2021/11/12 06:15:59;;;;;;;53.90;27.73;;;;;;;0.77;100.00;101712.06;2090135;28;20446;-71
2021/11/12 06:16:59;;;;;;;55.63;27.10;;;;;;;0.76;100.00;101707.75;2090113;28;20394;-71
2021/11/12 06:17:59;;;;;;;54.10;28.33;;;;;;;0.74;100.00;101714.59;2090094;28;20307;-69
2021/11/12 06:19:01;;;;;;;53.33;27.53;;;;;;;0.73;100.00;101710.31;2090165;28;20490;-70
2021/11/12 06:20:02;;;;;;;46.03;24.83;;;;;;;0.72;100.00;101708.56;2090073;28;20086;-70
2021/11/12 06:21:02;;;;;;;52.47;28.88;;;;;;;0.73;100.00;101709.44;2090055;28;20078;-71
2021/11/12 06:22:03;;;;;;;53.83;27.05;;;;;;;0.73;100.00;101712.00;2090088;28;20470;-71
2021/11/12 06:23:04;;;;;;;54.00;26.42;;;;;;;0.73;100.00;101712.00;2090130;28;20059;-70
2021/11/12 06:24:04;;;;;;;56.13;25.85;;;;;;;0.72;100.00;101708.56;2090072;28;20021;-72
2021/11/12 06:25:06;;;;;;;51.93;24.07;;;;;;;0.71;100.00;101716.25;2089931;28;20075;-70
2021/11/12 06:26:07;;;;;;;53.70;26.77;;;;;;;0.71;100.00;101719.69;2090120;28;20037;-71
2021/11/12 06:27:08;;;;;;;48.88;24.67;;;;;;;0.71;100.00;101726.50;2090078;28;20046;-71
2021/11/12 06:28:08;;;;;;;50.88;26.25;;;;;;;0.70;100.00;101725.69;2090239;28;20040;-70
2021/11/12 06:29:09;;;;;;;47.83;24.17;;;;;;;0.68;100.00;101717.06;2090115;28;20025;-71
2021/11/12 06:30:10;;;;;;;47.78;25.02;;;;;;;0.67;100.00;101720.50;2090052;28;20143;-72
2021/11/12 06:31:13;;;;;;;50.55;25.38;;;;;;;0.65;100.00;101729.88;2089536;28;20025;-74
2021/11/12 06:32:14;;;;;;;48.90;25.35;;;;;;;0.62;100.00;101728.13;2089395;28;20151;-71
2021/11/12 06:33:15;;;;;;;52.72;27.08;;;;;;;0.61;100.00;101721.28;2081174;28;20067;-70
2021/11/12 06:34:15;;;;;;;52.38;25.90;;;;;;;0.59;100.00;101732.38;2089448;28;20029;-70
2021/11/12 06:35:16;;;;;;;53.13;24.77;;;;;;;0.56;100.00;101728.06;2089494;28;20475;-71
2021/11/12 06:36:18;;;;;;;52.83;23.23;;;;;;;0.54;100.00;101734.03;2089514;28;20091;-71
2021/11/12 06:37:18;;;;;;;54.58;25.10;;;;;;;0.51;100.00;101733.13;2089315;28;20490;-71
2021/11/12 06:38:23;;;;;;;52.67;24.83;;;;;;;0.48;100.00;101733.06;2091182;28;20023;-71
2021/11/12 06:39:24;;;;;;;53.75;26.17;;;;;;;0.45;100.00;101735.59;2091707;28;20475;-70
2021/11/12 06:40:24;;;;;;;48.90;23.73;;;;;;;0.41;100.00;101733.81;2091729;28;20025;-70
2021/11/12 06:43:03;;;;;;;51.45;25.40;;;;;;;0.40;100.00;101729.53;2091715;28;20127;-70
2021/11/12 06:49:21;;;;;;;41.28;22.08;;;;;;;0.23;100.00;101737.00;2091674;28;20025;-71
2021/11/12 06:50:25;;;;;;;43.95;21.77;;;;;;;0.19;100.00;101741.22;2091727;28;20025;-71
2021/11/12 06:51:25;;;;;;;44.80;20.70;;;;;;;0.15;100.00;101742.03;2091013;28;20061;-70
2021/11/12 06:52:27;;;;;;;40.07;21.70;;;;;;;0.13;100.00;101743.69;2091004;28;20536;-71
2021/11/12 06:53:28;;;;;;;43.45;21.58;;;;;;;0.11;100.00;101740.25;2091095;28;20492;-70
2021/11/12 06:54:28;;;;;;;45.50;23.20;;;;;;;0.07;100.00;101729.06;2091614;28;20025;-70
2021/11/12 06:55:30;;;;;;;41.33;21.50;;;;;;;0.09;100.00;101732.53;2091644;28;20013;-71
2021/11/12 06:56:30;;;;;;;46.15;22.92;;;;;;;0.15;100.00;101726.63;2091639;28;20103;-71
2021/11/12 06:57:30;;;;;;;43.87;22.83;;;;;;;0.18;100.00;101721.53;2091644;28;20481;-71
2021/11/12 06:58:31;;;;;;;49.30;23.33;;;;;;;0.17;100.00;101718.94;2091597;28;20075;-70
2021/11/12 06:59:32;;;;;;;43.08;23.88;;;;;;;0.14;100.00;101722.34;2091590;28;20013;-71
2021/11/12 07:00:32;;;;;;;42.63;21.40;;;;;;;0.11;100.00;101724.84;2091648;28;20465;-72
2021/11/12 07:01:32;;;;;;;44.77;24.63;;;;;;;0.12;100.00;101721.44;2091555;28;20432;-71
2021/11/12 07:02:33;;;;;;;43.17;22.53;;;;;;;0.13;100.00;101720.59;2091643;28;20716;-71
2021/11/12 07:03:34;;;;;;;39.03;21.87;;;;;;;0.12;100.00;101718.88;2091445;28;20102;-71
2021/11/12 07:04:34;;;;;;;;;;;;;;;0.15;100.00;101721.50;2092022;28;20017;-70
2021/11/12 07:05:35;;;;;;;38.10;20.63;;;;;;;0.13;100.00;101718.03;2091514;28;19916;-70
2021/11/12 07:06:36;;;;;;;42.07;21.40;;;;;;;0.12;100.00;101716.31;2091566;28;20390;-70
2021/11/12 07:07:36;;;;;;;40.92;22.10;;;;;;;0.08;100.00;101723.09;2090893;28;20044;-70
2021/11/12 07:08:37;;;;;;;41.73;21.83;;;;;;;0.05;100.00;101714.47;2090981;28;20390;-71
2021/11/12 07:09:39;;;;;;;35.50;20.30;;;;;;;0.04;100.00;101711.06;2091581;28;20283;-71
2021/11/12 07:10:39;;;;;;;42.83;22.00;;;;;;;0.06;100.00;101721.31;2091531;28;20070;-70
2021/11/12 07:11:39;;;;;;;44.20;22.63;;;;;;;0.08;100.00;101715.41;2090855;28;20054;-71
2021/11/12 07:12:40;;;;;;;46.50;22.63;;;;;;;0.12;100.00;101716.31;2082576;28;20025;-72
2021/11/12 07:13:40;;;;;;;41.97;22.60;;;;;;;0.13;100.00;101712.88;2090815;28;20033;-73
2021/11/12 07:14:42;;;;;;;38.70;21.30;;;;;;;0.14;100.00;101709.50;2091526;28;20029;-71
2021/11/12 07:15:42;;;;;;;42.25;23.45;;;;;;;0.15;100.00;101710.34;2091458;28;20067;-72
2021/11/12 07:16:43;;;;;;;41.43;22.47;;;;;;;0.17;100.00;101713.81;2091520;28;20016;-72
2021/11/12 07:17:43;;;;;;;43.33;22.48;;;;;;;0.12;100.00;101706.91;2091444;28;20021;-71
2021/11/12 07:18:44;;;;;;;42.00;21.43;;;;;;;0.14;100.00;101706.94;2091468;28;20017;-72
2021/11/12 07:19:45;;;;;;;37.80;21.42;;;;;;;0.13;100.00;101707.75;2090783;28;20036;-71
2021/11/12 07:20:47;;;;;;;37.97;20.57;;;;;;;0.15;100.00;101700.06;2090863;28;20512;-72
2021/11/12 07:21:47;;;;;;;40.90;23.17;;;;;;;0.15;100.00;101700.06;2091483;28;20112;-72
2021/11/12 07:22:47;;;;;;;40.00;22.03;;;;;;;0.16;100.00;101706.94;2091441;28;20029;-72
2021/11/12 07:23:47;;;;;;;41.30;20.60;;;;;;;0.15;100.00;101710.34;2090675;28;20025;-72
2021/11/12 07:24:48;;;;;;;39.23;21.70;;;;;;;0.15;100.00;101705.22;2090879;28;20103;-71
2021/11/12 07:25:48;;;;;;;43.57;21.57;;;;;;;0.15;100.00;101710.34;2091232;28;20029;-72
2021/11/12 07:26:48;;;;;;;34.93;20.43;;;;;;;0.15;100.00;101711.22;2091405;28;20112;-71
2021/11/12 07:27:50;;;;;;;47.87;22.03;;;;;;;0.17;100.00;101709.53;2091371;28;20102;-72
2021/11/12 07:28:51;;;;;;;39.92;21.33;;;;;;;0.16;100.00;101707.81;2091403;28;20441;-72
2021/11/12 07:29:51;;;;;;;42.65;22.35;;;;;;;0.19;100.00;101704.41;2091404;28;20394;-72
2021/11/12 07:30:54;;;;;;;42.30;21.37;;;;;;;0.23;100.00;101704.50;2091387;28;20020;-70
2021/11/12 07:31:55;;;;;;;36.58;20.25;;;;;;;0.24;100.00;101708.78;2090607;28;20025;-70
2021/11/12 07:32:56;;;;;;;34.50;19.17;;;;;;;0.25;100.00;101699.38;2090684;28;20036;-71
2021/11/12 07:33:59;;;;;;;38.63;19.90;;;;;;;0.25;100.00;101696.81;2090795;28;20040;-71
2021/11/12 07:34:59;;;;;;;36.88;20.05;;;;;;;0.27;100.00;101689.13;2091512;28;20044;-71
2021/11/12 07:36:17;;;;;;;36.60;20.13;;;;;;;0.27;100.00;101684.84;2091459;28;20386;-71
2021/11/12 07:37:18;;;;;;;37.47;19.02;;;;;;;0.30;100.00;101689.19;2091413;28;20457;-70